Time;durP1;ratioP1;P1;durP2;ratioP2;P2;SDS_P1;SDS_P2;PMS_P1;PMS_P2;Temp;Humidity;BMP_temperature;BMP_pressure;BME280_temperature;BME280_humidity;BME280_pressure;Samples;Min_cycle;Max_cycle;Signal;HPM_P1;HPM_P2
2023/03/02 00:01:52;;;;;;;1.80;1.70;;;18.90;34.90;;;;;;4994730;28;20806;-62
2023/03/02 00:04:34;;;;;;;3.40;1.90;;;18.90;34.90;;;;;;4992043;28;20429;-61
2023/03/02 00:07:03;;;;;;;2.00;1.90;;;18.80;34.80;;;;;;4996530;28;20462;-65
2023/03/02 00:09:29;;;;;;;1.83;1.73;;;18.90;35.00;;;;;;4990291;28;20455;-64
2023/03/02 00:11:55;;;;;;;1.80;1.70;;;18.90;35.00;;;;;;4996000;28;20965;-65
2023/03/02 00:14:21;;;;;;;2.30;2.17;;;18.90;35.00;;;;;;4998559;28;20223;-64
2023/03/02 00:16:46;;;;;;;2.03;1.93;;;18.90;35.00;;;;;;4999314;28;20238;-63
2023/03/02 00:19:12;;;;;;;2.10;2.00;;;18.90;34.90;;;;;;4990201;28;21148;-64
2023/03/02 00:21:37;;;;;;;2.20;2.00;;;18.90;34.90;;;;;;4994940;28;20220;-64
2023/03/02 00:24:03;;;;;;;2.37;2.17;;;18.80;34.80;;;;;;4994778;28;20223;-64
2023/03/02 00:26:35;;;;;;;3.13;2.83;;;18.80;34.90;;;;;;4996270;28;20219;-63
2023/03/02 00:29:01;;;;;;;2.43;2.20;;;18.90;34.90;;;;;;4994387;28;20292;-64
2023/03/02 00:31:26;;;;;;;2.00;1.90;;;18.80;34.80;;;;;;4995942;28;20471;-63
2023/03/02 00:33:53;;;;;;;1.90;1.80;;;18.80;34.90;;;;;;5017232;28;20539;-64
2023/03/02 00:36:19;;;;;;;1.93;1.83;;;18.80;34.90;;;;;;4978002;28;20862;-62
2023/03/02 00:38:46;;;;;;;1.93;1.77;;;18.80;34.90;;;;;;4983612;28;20807;-61
2023/03/02 00:41:13;;;;;;;1.80;1.70;;;18.80;34.90;;;;;;4989835;28;20422;-64
2023/03/02 00:43:38;;;;;;;2.20;2.10;;;18.80;35.00;;;;;;4994760;28;20461;-62
2023/03/02 00:46:11;;;;;;;2.03;1.90;;;18.80;34.90;;;;;;4972780;28;20840;-64
2023/03/02 00:48:36;;;;;;;1.93;1.70;;;18.80;34.80;;;;;;4992967;28;20305;-63
2023/03/02 00:51:02;;;;;;;1.70;1.60;;;18.80;34.80;;;;;;4996838;28;20428;-63
2023/03/02 00:53:28;;;;;;;2.40;2.30;;;18.80;34.80;;;;;;4995711;28;20227;-63
2023/03/02 00:55:54;;;;;;;1.90;1.80;;;18.80;34.90;;;;;;4993188;28;20319;-63
2023/03/02 00:58:20;;;;;;;2.10;2.00;;;18.80;34.80;;;;;;4990196;28;20336;-63
2023/03/02 01:00:46;;;;;;;2.93;1.93;;;18.80;34.80;;;;;;4987434;28;20453;-64
2023/03/02 01:03:11;;;;;;;2.00;1.80;;;18.80;34.80;;;;;;4995055;28;20443;-63
2023/03/02 01:05:37;;;;;;;1.77;1.67;;;18.90;34.90;;;;;;4995661;28;20235;-63
2023/03/02 01:08:03;;;;;;;1.93;1.77;;;18.80;34.90;;;;;;4984442;28;20243;-65
2023/03/02 01:10:31;;;;;;;2.00;1.90;;;18.90;34.90;;;;;;4977231;28;20255;-64
2023/03/02 01:12:56;;;;;;;2.20;2.10;;;18.80;34.80;;;;;;4990036;28;20679;-64
2023/03/02 01:15:22;;;;;;;2.10;2.00;;;18.80;34.80;;;;;;4985620;28;20439;-64
2023/03/02 01:17:47;;;;;;;2.80;1.70;;;18.80;34.80;;;;;;4992713;28;20277;-64
2023/03/02 01:20:14;;;;;;;1.70;1.60;;;18.80;34.80;;;;;;4981939;28;20216;-64
2023/03/02 01:22:39;;;;;;;2.47;2.27;;;18.80;34.80;;;;;;4996058;28;20212;-61
2023/03/02 01:25:05;;;;;;;1.90;1.80;;;18.80;34.80;;;;;;4992401;28;20438;-64
2023/03/02 01:27:31;;;;;;;2.20;2.07;;;18.80;35.60;;;;;;4993696;28;20231;-62
2023/03/02 01:29:56;;;;;;;1.93;1.83;;;18.80;34.80;;;;;;4995202;28;20250;-64
2023/03/02 01:32:22;;;;;;;1.87;1.77;;;18.80;34.80;;;;;;4996654;28;20226;-62
2023/03/02 01:34:48;;;;;;;2.20;1.70;;;18.80;34.80;;;;;;4987169;28;20223;-64
2023/03/02 01:37:13;;;;;;;2.10;2.00;;;18.80;34.80;;;;;;4991885;28;20215;-64
2023/03/02 01:39:39;;;;;;;2.10;2.00;;;18.80;34.80;;;;;;4990792;28;20219;-63
2023/03/02 01:42:04;;;;;;;2.30;2.00;;;18.80;34.80;;;;;;4998556;28;20223;-64
2023/03/02 01:44:36;;;;;;;1.97;1.87;;;18.80;34.80;;;;;;4985620;28;20220;-64
2023/03/02 01:47:16;;;;;;;2.33;2.13;;;18.80;34.80;;;;;;4990619;28;20256;-64
2023/03/02 01:49:48;;;;;;;1.60;1.50;;;18.80;34.80;;;;;;4991935;28;20527;-64
2023/03/02 01:52:15;;;;;;;1.70;1.60;;;18.80;34.80;;;;;;4993775;28;21345;-65
2023/03/02 01:54:42;;;;;;;1.97;1.87;;;18.80;34.80;;;;;;4986813;28;20571;-63
2023/03/02 01:57:09;;;;;;;1.70;1.60;;;18.80;34.70;;;;;;4997526;28;20481;-62
2023/03/02 01:59:37;;;;;;;1.97;1.87;;;18.80;35.30;;;;;;4981019;28;20470;-64
2023/03/02 02:02:05;;;;;;;1.90;1.80;;;18.80;34.80;;;;;;4971677;28;20866;-63
2023/03/02 02:04:33;;;;;;;5.13;1.73;;;18.80;34.80;;;;;;4973455;28;20524;-63
2023/03/02 02:07:02;;;;;;;4.13;2.03;;;18.80;34.80;;;;;;4987786;28;20436;-64
2023/03/02 02:09:30;;;;;;;2.13;1.90;;;18.80;34.80;;;;;;4978243;28;21044;-62
2023/03/02 02:11:56;;;;;;;2.23;2.00;;;18.80;34.80;;;;;;4994987;28;20438;-63
2023/03/02 02:14:22;;;;;;;2.20;2.00;;;18.80;34.80;;;;;;4990390;28;20440;-62
2023/03/02 02:16:47;;;;;;;1.87;1.77;;;18.80;34.80;;;;;;4973619;28;20224;-63
2023/03/02 02:19:44;;;;;;;2.53;2.33;;;18.80;34.80;;;;;;4988787;28;20298;-63
2023/03/02 02:22:11;;;;;;;1.70;1.60;;;18.80;34.80;;;;;;4990660;28;20220;-62
2023/03/02 02:24:44;;;;;;;1.80;1.70;;;18.80;34.80;;;;;;4990889;28;22421;-63
2023/03/02 02:27:11;;;;;;;1.77;1.67;;;18.80;34.80;;;;;;4995599;28;20558;-64
2023/03/02 02:29:46;;;;;;;2.00;1.90;;;18.80;34.80;;;;;;4995965;28;20472;-63
2023/03/02 02:32:20;;;;;;;1.97;1.87;;;18.80;34.80;;;;;;4989130;28;20977;-62
2023/03/02 02:34:50;;;;;;;1.70;1.60;;;18.80;34.80;;;;;;4991561;28;20443;-63
2023/03/02 02:37:27;;;;;;;2.07;1.73;;;18.80;34.80;;;;;;4989784;28;20960;-63
2023/03/02 02:39:53;;;;;;;1.80;1.70;;;18.80;34.70;;;;;;4988628;28;20544;-62
2023/03/02 02:42:43;;;;;;;2.10;2.00;;;18.80;34.70;;;;;;4987646;28;20456;-64
2023/03/02 02:45:25;;;;;;;2.07;1.87;;;18.80;34.80;;;;;;4992694;28;20431;-64
2023/03/02 02:47:52;;;;;;;1.90;1.80;;;18.80;34.80;;;;;;4985497;28;20973;-64
2023/03/02 02:50:25;;;;;;;2.10;2.00;;;18.80;34.80;;;;;;4991146;28;21244;-64
2023/03/02 02:52:58;;;;;;;2.23;1.80;;;18.80;34.80;;;;;;4978248;28;20535;-63
2023/03/02 02:55:25;;;;;;;1.97;1.87;;;18.80;34.80;;;;;;4989816;28;20534;-62
2023/03/02 02:57:53;;;;;;;1.90;1.80;;;18.80;34.80;;;;;;4995864;28;20485;-64
2023/03/02 03:00:20;;;;;;;2.23;2.03;;;18.80;34.80;;;;;;4984188;28;20427;-62
2023/03/02 03:02:52;;;;;;;1.80;1.70;;;18.80;34.80;;;;;;4992224;28;20487;-63
2023/03/02 03:05:17;;;;;;;2.20;1.90;;;18.80;34.80;;;;;;4994493;28;20443;-64
2023/03/02 03:07:43;;;;;;;2.07;1.97;;;18.80;34.80;;;;;;4989098;28;20453;-64
2023/03/02 03:10:18;;;;;;;1.87;1.77;;;18.80;34.80;;;;;;4985379;28;20235;-63
2023/03/02 03:12:44;;;;;;;1.83;1.73;;;18.80;34.80;;;;;;4993878;28;20338;-62
2023/03/02 03:15:11;;;;;;;1.70;1.60;;;18.80;34.80;;;;;;4997362;28;20446;-62
2023/03/02 03:17:36;;;;;;;1.90;1.80;;;18.80;34.80;;;;;;5001183;28;20461;-64
2023/03/02 03:20:05;;;;;;;2.03;1.90;;;18.80;34.80;;;;;;4993035;28;21010;-64
2023/03/02 03:22:33;;;;;;;2.13;2.03;;;18.80;34.70;;;;;;5001972;28;20226;-63
2023/03/02 03:24:59;;;;;;;2.50;2.30;;;18.80;34.80;;;;;;4984590;28;20523;-64
2023/03/02 03:27:24;;;;;;;2.13;1.70;;;18.80;34.70;;;;;;4986137;28;20468;-64
2023/03/02 03:29:50;;;;;;;2.37;2.17;;;18.80;34.80;;;;;;4999583;28;20319;-63
2023/03/02 03:32:16;;;;;;;1.70;1.60;;;18.80;34.70;;;;;;4986012;28;20734;-63
2023/03/02 03:34:42;;;;;;;1.83;1.73;;;18.80;34.80;;;;;;4990608;28;20231;-63
2023/03/02 03:37:11;;;;;;;1.70;1.60;;;18.80;34.80;;;;;;4997619;28;21067;-64
2023/03/02 03:39:36;;;;;;;2.20;2.00;;;18.80;34.80;;;;;;5000601;28;20543;-63
2023/03/02 03:42:03;;;;;;;2.20;2.10;;;18.80;34.80;;;;;;4994838;28;20464;-64
2023/03/02 03:44:29;;;;;;;2.17;1.93;;;18.70;34.70;;;;;;4998301;28;20215;-63
2023/03/02 03:46:54;;;;;;;2.00;1.90;;;18.80;34.80;;;;;;4997665;28;20550;-64
2023/03/02 03:49:20;;;;;;;1.70;1.60;;;18.70;34.80;;;;;;4982306;28;20490;-63
2023/03/02 03:51:46;;;;;;;2.93;2.63;;;18.70;34.80;;;;;;4996990;28;20659;-63
2023/03/02 03:54:12;;;;;;;1.80;1.70;;;18.70;34.80;;;;;;4993811;28;20228;-63
2023/03/02 03:56:41;;;;;;;2.57;2.23;;;18.70;34.90;;;;;;5000676;28;20526;-63
2023/03/02 03:59:08;;;;;;;1.93;1.83;;;18.70;34.80;;;;;;5031019;28;20247;-63
2023/03/02 04:01:45;;;;;;;2.03;1.90;;;18.70;34.90;;;;;;4985200;28;20432;-63
2023/03/02 04:04:18;;;;;;;1.70;1.60;;;18.70;34.80;;;;;;4987831;28;20459;-63
2023/03/02 04:06:44;;;;;;;2.17;2.03;;;18.70;34.80;;;;;;4985194;28;20871;-63
2023/03/02 04:09:11;;;;;;;2.10;2.00;;;18.70;34.80;;;;;;4983770;28;20453;-63
2023/03/02 04:11:40;;;;;;;2.10;1.90;;;18.70;34.80;;;;;;4997649;28;20693;-63
2023/03/02 04:14:07;;;;;;;2.07;1.87;;;18.80;34.90;;;;;;4989788;28;20423;-61
2023/03/02 04:16:33;;;;;;;1.90;1.80;;;18.70;34.80;;;;;;4998156;28;20483;-63
2023/03/02 04:18:59;;;;;;;1.80;1.70;;;18.80;34.90;;;;;;4994782;28;20478;-63
2023/03/02 04:21:25;;;;;;;1.80;1.70;;;18.70;34.80;;;;;;4998548;28;20518;-62
2023/03/02 04:23:51;;;;;;;2.03;1.93;;;18.80;34.80;;;;;;4994457;28;20224;-63
2023/03/02 04:26:17;;;;;;;1.70;1.60;;;18.70;34.80;;;;;;4995015;28;20447;-62
2023/03/02 04:28:43;;;;;;;2.23;2.13;;;18.80;34.80;;;;;;4996455;28;20277;-63
2023/03/02 04:31:09;;;;;;;1.80;1.63;;;18.80;34.80;;;;;;4997580;28;20463;-63
2023/03/02 04:33:34;;;;;;;2.27;2.17;;;18.80;34.80;;;;;;4995909;28;20564;-62
2023/03/02 04:36:00;;;;;;;1.90;1.80;;;18.80;34.70;;;;;;4994981;28;20223;-63
2023/03/02 04:38:28;;;;;;;2.00;1.90;;;18.80;34.80;;;;;;4994491;28;20223;-63
2023/03/02 04:40:56;;;;;;;1.93;1.67;;;18.80;34.70;;;;;;4991953;28;20220;-63
2023/03/02 04:43:22;;;;;;;1.67;1.57;;;18.80;34.70;;;;;;4997135;28;20457;-63
2023/03/02 04:45:48;;;;;;;1.70;1.60;;;18.80;34.70;;;;;;4985286;28;20476;-62
2023/03/02 04:48:14;;;;;;;1.80;1.70;;;18.80;34.60;;;;;;4988649;28;20464;-62
2023/03/02 04:50:39;;;;;;;1.77;1.67;;;18.80;34.70;;;;;;4991423;28;20633;-63
2023/03/02 04:53:05;;;;;;;1.90;1.80;;;18.80;34.60;;;;;;4991559;28;20216;-63
2023/03/02 04:55:31;;;;;;;1.70;1.60;;;18.80;34.60;;;;;;4989855;28;20271;-62
2023/03/02 04:57:57;;;;;;;2.10;2.00;;;18.80;34.60;;;;;;4976948;28;20227;-63
2023/03/02 05:00:23;;;;;;;2.00;1.90;;;18.80;34.60;;;;;;4981720;28;20239;-65
2023/03/02 05:02:49;;;;;;;3.43;1.87;;;18.80;34.60;;;;;;4997741;28;21044;-64
2023/03/02 05:05:20;;;;;;;2.00;1.90;;;18.80;34.60;;;;;;4994610;28;20437;-64
2023/03/02 05:07:46;;;;;;;1.87;1.77;;;18.80;34.50;;;;;;4980087;28;20231;-64
2023/03/02 05:10:14;;;;;;;1.93;1.83;;;18.80;34.50;;;;;;4984704;28;20431;-64
2023/03/02 05:13:01;;;;;;;2.43;2.23;;;18.80;34.50;;;;;;4993111;28;20696;-64
2023/03/02 05:15:36;;;;;;;2.40;1.70;;;18.90;34.50;;;;;;4994321;28;20513;-64
2023/03/02 05:18:04;;;;;;;2.43;1.80;;;18.90;34.40;;;;;;4992806;28;20424;-65
2023/03/02 05:20:30;;;;;;;1.70;1.60;;;18.90;34.40;;;;;;4986608;28;21014;-62
2023/03/02 05:23:01;;;;;;;1.93;1.83;;;18.90;34.30;;;;;;4989476;28;21121;-63
2023/03/02 05:25:29;;;;;;;1.90;1.80;;;18.90;34.30;;;;;;4984416;28;20474;-63
2023/03/02 05:27:55;;;;;;;1.53;1.43;;;18.90;34.30;;;;;;4985041;28;21232;-64
2023/03/02 05:30:21;;;;;;;2.20;2.10;;;18.90;34.30;;;;;;4985012;28;20485;-62
2023/03/02 05:32:48;;;;;;;2.00;1.90;;;18.90;34.20;;;;;;4989258;28;20235;-63
2023/03/02 05:35:13;;;;;;;1.70;1.60;;;18.90;34.20;;;;;;4979235;28;20473;-69
2023/03/02 05:37:41;;;;;;;2.00;1.90;;;18.90;34.30;;;;;;4989068;28;20444;-63
2023/03/02 05:40:08;;;;;;;2.23;2.13;;;18.90;34.30;;;;;;4994250;28;20223;-64
2023/03/02 05:42:34;;;;;;;1.63;1.53;;;18.90;34.30;;;;;;4990883;28;21323;-63
2023/03/02 05:45:02;;;;;;;1.80;1.70;;;18.90;34.30;;;;;;4991141;28;20440;-63
2023/03/02 05:47:28;;;;;;;2.03;1.93;;;18.90;34.30;;;;;;4995863;28;21016;-64
2023/03/02 05:49:53;;;;;;;1.80;1.70;;;18.90;34.30;;;;;;4984579;28;20455;-64
2023/03/02 05:52:19;;;;;;;2.40;2.20;;;18.90;34.30;;;;;;4994376;28;20231;-64
2023/03/02 05:54:44;;;;;;;2.10;1.80;;;18.90;34.30;;;;;;4988162;28;20223;-65
2023/03/02 05:57:10;;;;;;;1.73;1.63;;;18.90;34.30;;;;;;4985705;28;20231;-64
2023/03/02 05:59:35;;;;;;;1.90;1.80;;;18.90;34.40;;;;;;4992085;28;20301;-65
2023/03/02 06:02:01;;;;;;;1.97;1.80;;;18.90;34.30;;;;;;4994214;28;20234;-65
2023/03/02 06:04:26;;;;;;;1.80;1.70;;;18.90;34.40;;;;;;4987084;28;20309;-62
2023/03/02 06:06:52;;;;;;;1.90;1.80;;;18.90;34.60;;;;;;4983313;28;20234;-68
2023/03/02 06:09:17;;;;;;;1.90;1.70;;;18.90;34.30;;;;;;5011895;28;20291;-68
2023/03/02 06:11:43;;;;;;;1.80;1.70;;;18.90;34.30;;;;;;4998179;28;20237;-66
2023/03/02 06:14:09;;;;;;;3.53;1.90;;;18.90;34.30;;;;;;4994122;28;20246;-65
2023/03/02 06:16:35;;;;;;;1.90;1.80;;;18.90;34.30;;;;;;4989159;28;20215;-66
2023/03/02 06:19:01;;;;;;;1.77;1.67;;;18.90;34.30;;;;;;4983606;28;20216;-68
2023/03/02 06:21:27;;;;;;;2.30;2.10;;;18.90;34.30;;;;;;4995954;28;20813;-66
2023/03/02 06:23:52;;;;;;;2.20;2.10;;;18.90;34.30;;;;;;4992882;28;20902;-64
2023/03/02 06:26:18;;;;;;;3.60;2.47;;;18.90;34.20;;;;;;4982647;28;20223;-63
2023/03/02 06:28:43;;;;;;;2.10;1.87;;;18.90;34.10;;;;;;4990181;28;20373;-65
2023/03/02 06:31:09;;;;;;;2.07;1.97;;;18.90;34.10;;;;;;4996932;28;20227;-65
2023/03/02 06:33:34;;;;;;;2.10;2.00;;;18.90;34.20;;;;;;5001676;28;20227;-63
2023/03/02 06:36:00;;;;;;;1.87;1.77;;;18.90;34.20;;;;;;4994122;28;20656;-66
2023/03/02 06:38:26;;;;;;;1.83;1.73;;;18.90;34.20;;;;;;4989492;28;20660;-64
2023/03/02 06:40:51;;;;;;;2.23;2.13;;;18.90;34.20;;;;;;4996870;28;20226;-65
2023/03/02 06:43:17;;;;;;;2.27;1.77;;;18.90;34.30;;;;;;5000596;28;20302;-64
2023/03/02 06:45:42;;;;;;;1.80;1.70;;;18.90;34.30;;;;;;4986041;28;20595;-66
2023/03/02 06:48:08;;;;;;;1.90;1.80;;;18.90;34.30;;;;;;4992147;28;20219;-63
2023/03/02 06:50:33;;;;;;;2.33;2.13;;;18.90;34.30;;;;;;5000485;28;20239;-66
2023/03/02 06:52:59;;;;;;;2.30;2.10;;;18.90;34.30;;;;;;5001035;28;20281;-65
2023/03/02 06:55:25;;;;;;;2.53;2.07;;;18.90;34.40;;;;;;4994718;28;20273;-65
2023/03/02 06:57:51;;;;;;;6.90;2.43;;;18.90;34.40;;;;;;5008903;28;20257;-69
2023/03/02 07:00:23;;;;;;;2.20;2.10;;;18.90;34.30;;;;;;4986296;28;20428;-69
2023/03/02 07:02:50;;;;;;;1.70;1.60;;;18.90;34.40;;;;;;4950863;28;20223;-65
2023/03/02 07:05:16;;;;;;;2.10;1.90;;;18.90;34.50;;;;;;4983464;28;20961;-69
2023/03/02 07:07:41;;;;;;;2.17;2.00;;;18.90;34.40;;;;;;5001827;28;20544;-68
2023/03/02 07:10:09;;;;;;;1.90;1.80;;;18.90;34.30;;;;;;4987567;28;20451;-69
2023/03/02 07:12:35;;;;;;;2.27;1.73;;;18.90;34.40;;;;;;5000743;28;20231;-69
2023/03/02 07:15:00;;;;;;;2.00;1.90;;;18.90;34.50;;;;;;4996158;28;20471;-69
2023/03/02 07:17:26;;;;;;;1.90;1.80;;;18.90;34.40;;;;;;4990674;28;20230;-65
2023/03/02 07:19:51;;;;;;;2.43;2.33;;;18.80;34.30;;;;;;5019365;28;20609;-66
2023/03/02 07:22:17;;;;;;;1.97;1.87;;;18.80;34.40;;;;;;5002058;28;20734;-69
2023/03/02 07:24:42;;;;;;;1.83;1.73;;;18.80;34.30;;;;;;4995745;28;20239;-69
2023/03/02 07:27:08;;;;;;;2.10;1.90;;;18.80;34.40;;;;;;4997961;28;20274;-68
2023/03/02 07:29:33;;;;;;;2.70;1.90;;;18.80;34.40;;;;;;4997386;28;20237;-68
2023/03/02 07:31:59;;;;;;;3.03;2.20;;;18.80;34.40;;;;;;4996275;28;20261;-68
2023/03/02 07:34:26;;;;;;;1.90;1.80;;;18.80;34.40;;;;;;4998039;28;20223;-66
2023/03/02 07:36:51;;;;;;;2.10;1.90;;;18.80;34.40;;;;;;5005410;28;20618;-69
2023/03/02 07:39:17;;;;;;;2.17;2.03;;;18.80;34.40;;;;;;4999051;28;20444;-69
2023/03/02 07:41:43;;;;;;;2.00;1.90;;;18.80;34.40;;;;;;4993392;28;20353;-68
2023/03/02 07:44:09;;;;;;;1.90;1.80;;;18.80;34.40;;;;;;4992752;28;21053;-68
2023/03/02 07:46:35;;;;;;;2.10;2.00;;;18.80;34.30;;;;;;4994464;28;20235;-70
2023/03/02 07:49:01;;;;;;;1.83;1.73;;;18.80;34.30;;;;;;4998639;28;20684;-68
2023/03/02 07:51:26;;;;;;;2.33;2.13;;;18.80;34.30;;;;;;4991990;28;20220;-69
2023/03/02 07:53:52;;;;;;;2.13;1.90;;;18.80;34.30;;;;;;5004159;28;20436;-69
2023/03/02 07:56:19;;;;;;;1.80;1.70;;;18.80;34.30;;;;;;5004059;28;20262;-70
2023/03/02 07:58:45;;;;;;;2.20;2.10;;;18.90;34.30;;;;;;5002683;28;20314;-68
2023/03/02 08:01:10;;;;;;;2.13;1.73;;;18.90;34.30;;;;;;4998439;28;20858;-67
2023/03/02 08:03:37;;;;;;;1.97;1.87;;;18.80;34.20;;;;;;4992447;28;20302;-68
2023/03/02 08:06:12;;;;;;;3.00;2.20;;;18.90;34.30;;;;;;4992408;28;20263;-67
2023/03/02 08:08:37;;;;;;;1.90;1.80;;;18.90;34.30;;;;;;5004185;28;20438;-69
2023/03/02 08:11:08;;;;;;;2.03;1.93;;;18.90;34.30;;;;;;5000021;28;20996;-65
2023/03/02 08:13:34;;;;;;;1.67;1.50;;;18.90;34.20;;;;;;4997734;28;20223;-63
2023/03/02 08:16:04;;;;;;;1.97;1.87;;;18.90;34.30;;;;;;4990810;28;20436;-63
2023/03/02 08:18:30;;;;;;;1.80;1.70;;;18.90;34.30;;;;;;4995864;28;20219;-62
2023/03/02 08:20:57;;;;;;;1.97;1.87;;;18.90;34.30;;;;;;4996881;28;20499;-64
2023/03/02 08:23:24;;;;;;;2.03;1.93;;;18.90;34.30;;;;;;4996839;28;20469;-61
2023/03/02 08:25:50;;;;;;;1.77;1.67;;;18.90;34.30;;;;;;4994429;28;21277;-64
2023/03/02 08:28:16;;;;;;;2.50;2.07;;;18.90;34.30;;;;;;5001268;28;20446;-64
2023/03/02 08:30:41;;;;;;;2.37;2.17;;;18.90;34.30;;;;;;4985486;28;20448;-64
2023/03/02 08:33:07;;;;;;;2.10;2.00;;;18.90;34.40;;;;;;5002119;28;20211;-64
2023/03/02 08:35:33;;;;;;;1.57;1.47;;;18.90;34.30;;;;;;5001620;28;20231;-64
2023/03/02 08:37:58;;;;;;;2.00;1.70;;;18.90;34.40;;;;;;4999199;28;20221;-64
2023/03/02 08:40:24;;;;;;;2.43;2.03;;;18.80;34.30;;;;;;4990175;28;20223;-64
2023/03/02 08:42:55;;;;;;;1.80;1.70;;;18.90;34.40;;;;;;5005113;28;20215;-64
2023/03/02 08:45:25;;;;;;;1.90;1.60;;;18.90;34.30;;;;;;4994914;28;20879;-64
2023/03/02 08:47:53;;;;;;;1.70;1.60;;;18.90;34.40;;;;;;5003867;28;20457;-64
2023/03/02 08:50:19;;;;;;;1.90;1.80;;;18.90;34.30;;;;;;4987221;28;20430;-64
2023/03/02 08:52:45;;;;;;;2.13;2.03;;;18.90;34.30;;;;;;4978444;28;20419;-63
2023/03/02 08:55:10;;;;;;;1.80;1.70;;;18.90;34.30;;;;;;4995075;28;20535;-64
2023/03/02 08:57:36;;;;;;;2.13;1.60;;;18.90;34.40;;;;;;4982381;28;20232;-64
2023/03/02 09:00:02;;;;;;;2.17;1.40;;;18.90;34.30;;;;;;4984370;28;20311;-63
2023/03/02 09:02:28;;;;;;;5.07;2.07;;;18.80;34.30;;;;;;4987267;28;20230;-61
2023/03/02 09:04:54;;;;;;;1.80;1.70;;;18.90;34.50;;;;;;4987574;28;20470;-64
2023/03/02 09:07:20;;;;;;;2.37;1.93;;;18.80;34.30;;;;;;4999510;28;20712;-64
2023/03/02 09:09:45;;;;;;;1.73;1.63;;;18.80;34.30;;;;;;4996281;28;20438;-64
2023/03/02 09:12:11;;;;;;;2.10;2.00;;;18.90;34.40;;;;;;4994499;28;20238;-64
2023/03/02 09:14:37;;;;;;;2.20;2.00;;;18.90;34.30;;;;;;4998910;28;20231;-64
2023/03/02 09:17:02;;;;;;;1.90;1.80;;;18.90;34.40;;;;;;4995890;28;20216;-64
2023/03/02 09:19:28;;;;;;;2.13;1.50;;;18.90;34.40;;;;;;4993057;28;20220;-65
2023/03/02 09:21:54;;;;;;;2.07;1.87;;;18.80;34.30;;;;;;4999741;28;20219;-63
2023/03/02 09:24:19;;;;;;;2.03;1.83;;;18.80;34.30;;;;;;4992185;28;20250;-63
2023/03/02 09:26:45;;;;;;;2.30;2.20;;;18.80;34.30;;;;;;4997898;28;20223;-63
2023/03/02 09:29:10;;;;;;;1.90;1.50;;;18.90;34.40;;;;;;4990127;28;20662;-64
2023/03/02 09:31:36;;;;;;;2.10;2.00;;;18.90;34.40;;;;;;4999572;28;20302;-65
2023/03/02 09:34:02;;;;;;;1.80;1.70;;;18.90;34.30;;;;;;4986998;28;21035;-63
2023/03/02 09:36:30;;;;;;;2.43;2.23;;;18.90;34.30;;;;;;4990051;28;20242;-64
2023/03/02 09:38:55;;;;;;;1.80;1.70;;;18.90;34.30;;;;;;4992182;28;20534;-63
2023/03/02 09:41:21;;;;;;;2.30;1.93;;;18.90;34.30;;;;;;4998490;28;20926;-62
2023/03/02 09:44:23;;;;;;;2.10;2.00;;;18.90;34.20;;;;;;5007899;28;20258;-62
2023/03/02 09:46:58;;;;;;;1.70;1.60;;;18.90;34.20;;;;;;4995777;28;20678;-65
2023/03/02 09:49:52;;;;;;;1.97;1.87;;;18.90;34.20;;;;;;4992627;28;20465;-66
2023/03/02 09:52:39;;;;;;;1.73;1.63;;;18.90;34.20;;;;;;4990431;28;20434;-64
2023/03/02 09:55:15;;;;;;;1.83;1.73;;;18.90;34.20;;;;;;4995740;28;20461;-65
2023/03/02 09:57:41;;;;;;;2.30;2.10;;;18.90;35.00;;;;;;4995042;28;20435;-65
2023/03/02 10:00:22;;;;;;;1.97;1.87;;;18.90;34.20;;;;;;4998759;28;20457;-66
2023/03/02 10:03:00;;;;;;;1.77;1.67;;;18.90;34.20;;;;;;4991605;28;20464;-60
2023/03/02 10:05:37;;;;;;;1.80;1.70;;;18.90;34.20;;;;;;4982695;28;20948;-65
2023/03/02 10:08:03;;;;;;;2.07;1.97;;;18.90;34.20;;;;;;4996410;28;20501;-65
2023/03/02 10:10:47;;;;;;;1.70;1.60;;;19.00;34.30;;;;;;4989700;28;20833;-67
2023/03/02 10:13:20;;;;;;;1.77;1.67;;;19.00;34.30;;;;;;4986559;28;20217;-63
2023/03/02 10:16:20;;;;;;;1.60;1.50;;;19.00;34.20;;;;;;4995202;28;20492;-66
2023/03/02 10:19:11;;;;;;;1.90;1.80;;;19.00;34.20;;;;;;4992452;28;20437;-67
2023/03/02 10:21:46;;;;;;;1.87;1.77;;;19.00;34.30;;;;;;5000203;28;20521;-64
2023/03/02 10:24:20;;;;;;;2.20;2.00;;;19.00;34.30;;;;;;4989445;28;20435;-66
2023/03/02 10:26:51;;;;;;;2.63;2.43;;;19.00;34.30;;;;;;4986722;28;20468;-64
2023/03/02 10:29:41;;;;;;;1.80;1.70;;;19.00;34.30;;;;;;4987469;28;20661;-65
2023/03/02 10:32:22;;;;;;;2.03;1.60;;;19.10;34.40;;;;;;4996431;28;20469;-67
2023/03/02 10:34:50;;;;;;;1.60;1.50;;;19.10;34.50;;;;;;4991086;28;20878;-66
2023/03/02 10:37:28;;;;;;;1.80;1.70;;;19.10;34.50;;;;;;4997053;28;20478;-65
2023/03/02 10:39:55;;;;;;;1.60;1.50;;;19.10;34.50;;;;;;4999334;28;20481;-66
2023/03/02 10:42:32;;;;;;;2.17;1.60;;;19.10;34.60;;;;;;4993737;28;20460;-65
2023/03/02 10:45:22;;;;;;;1.50;1.40;;;19.10;34.60;;;;;;4997847;28;20882;-66
2023/03/02 10:48:04;;;;;;;2.17;2.07;;;19.10;34.70;;;;;;4985566;28;21037;-66
2023/03/02 10:50:30;;;;;;;2.30;2.20;;;19.10;35.40;;;;;;4994519;28;20784;-64
2023/03/02 10:52:56;;;;;;;1.73;1.63;;;19.10;34.60;;;;;;5003848;28;20468;-66
2023/03/02 10:55:21;;;;;;;1.70;1.60;;;19.10;34.70;;;;;;4986887;28;20305;-65
2023/03/02 10:57:59;;;;;;;2.00;1.90;;;19.10;34.70;;;;;;4989443;28;20216;-63
2023/03/02 11:00:27;;;;;;;1.70;1.60;;;19.10;34.70;;;;;;4996273;28;20234;-66
2023/03/02 11:02:56;;;;;;;1.73;1.63;;;19.10;34.70;;;;;;4986656;28;20481;-64
2023/03/02 11:05:29;;;;;;;3.40;1.80;;;19.10;34.80;;;;;;4984519;28;20499;-65
2023/03/02 11:07:56;;;;;;;2.10;2.00;;;19.10;34.80;;;;;;4990708;28;20465;-65
2023/03/02 11:10:25;;;;;;;1.67;1.57;;;19.10;34.80;;;;;;4990163;28;20556;-64
2023/03/02 11:12:52;;;;;;;1.70;1.60;;;19.10;35.00;;;;;;4998898;28;20442;-65
2023/03/02 11:15:24;;;;;;;1.50;1.40;;;19.10;34.90;;;;;;4992221;28;20862;-66
2023/03/02 11:18:05;;;;;;;1.77;1.57;;;19.10;35.00;;;;;;4991883;28;20457;-63
2023/03/02 11:20:36;;;;;;;1.80;1.70;;;19.10;34.90;;;;;;4992387;28;20464;-65
2023/03/02 11:23:14;;;;;;;1.63;1.53;;;19.10;35.00;;;;;;4978044;28;20506;-66
2023/03/02 11:25:50;;;;;;;1.63;1.53;;;19.10;35.00;;;;;;4978854;28;20476;-66
2023/03/02 11:28:41;;;;;;;2.23;2.03;;;19.10;35.00;;;;;;4991915;28;21173;-65
2023/03/02 11:31:15;;;;;;;1.60;1.50;;;19.20;35.10;;;;;;4996015;28;20492;-66
2023/03/02 11:34:21;;;;;;;1.90;1.80;;;19.20;35.00;;;;;;4994976;28;20435;-65
2023/03/02 11:37:12;;;;;;;2.13;1.60;;;19.20;35.00;;;;;;4989868;28;20487;-64
2023/03/02 11:39:47;;;;;;;1.80;1.70;;;19.20;35.00;;;;;;4998193;28;20445;-65
2023/03/02 11:42:20;;;;;;;1.57;1.47;;;19.20;35.70;;;;;;4993614;28;20457;-63
2023/03/02 11:44:47;;;;;;;1.50;1.40;;;19.20;34.90;;;;;;4994950;28;20488;-66
2023/03/02 11:47:13;;;;;;;1.67;1.53;;;19.30;35.10;;;;;;4995987;28;20519;-64
2023/03/02 11:49:44;;;;;;;1.60;1.50;;;19.30;35.00;;;;;;5000122;28;20473;-65
2023/03/02 11:52:18;;;;;;;1.60;1.50;;;19.30;35.00;;;;;;5003022;28;20915;-64
2023/03/02 11:54:56;;;;;;;1.70;1.60;;;19.30;35.00;;;;;;4994003;28;20443;-64
2023/03/02 11:57:27;;;;;;;1.80;1.70;;;19.30;35.00;;;;;;4994712;28;20774;-64
2023/03/02 11:59:55;;;;;;;1.60;1.50;;;19.20;34.90;;;;;;4996486;28;20432;-63
2023/03/02 12:02:21;;;;;;;1.90;1.80;;;19.30;35.00;;;;;;4996463;28;20424;-61
2023/03/02 12:04:47;;;;;;;2.07;1.97;;;19.30;35.00;;;;;;4991258;28;20496;-66
2023/03/02 12:07:26;;;;;;;1.63;1.53;;;19.30;35.00;;;;;;4988706;28;21436;-65
2023/03/02 12:10:22;;;;;;;1.67;1.57;;;19.30;35.00;;;;;;4995368;28;20468;-65
2023/03/02 12:13:06;;;;;;;2.20;1.50;;;19.30;35.00;;;;;;5004241;28;20480;-66
2023/03/02 12:16:23;;;;;;;1.80;1.70;;;19.30;35.00;;;;;;4990517;28;20477;-65
2023/03/02 12:18:50;;;;;;;1.70;1.60;;;19.30;35.00;;;;;;4985616;28;20960;-65
2023/03/02 12:21:20;;;;;;;1.93;1.83;;;19.30;35.10;;;;;;4992948;28;20461;-66
2023/03/02 12:23:46;;;;;;;1.90;1.80;;;19.30;35.10;;;;;;4992861;28;20428;-66
2023/03/02 12:26:26;;;;;;;1.87;1.77;;;19.30;35.10;;;;;;4993274;28;20509;-62
2023/03/02 12:29:09;;;;;;;2.07;1.97;;;19.30;35.20;;;;;;4990915;28;20314;-65
2023/03/02 12:31:55;;;;;;;2.07;1.83;;;19.30;35.20;;;;;;4995204;28;20599;-67
2023/03/02 12:34:23;;;;;;;1.80;1.70;;;19.30;35.10;;;;;;4992201;28;20458;-66
2023/03/02 12:36:53;;;;;;;1.83;1.73;;;19.30;35.20;;;;;;4997429;28;20456;-65
2023/03/02 12:39:40;;;;;;;2.13;2.03;;;19.30;35.20;;;;;;4994967;28;20428;-64
2023/03/02 12:42:36;;;;;;;2.00;1.70;;;19.30;35.20;;;;;;4990837;28;20455;-65
2023/03/02 12:45:33;;;;;;;1.90;1.80;;;19.30;35.20;;;;;;4988541;28;20441;-65
2023/03/02 12:48:14;;;;;;;1.70;1.60;;;19.30;35.20;;;;;;5000187;28;20426;-64
2023/03/02 12:50:40;;;;;;;1.90;1.70;;;19.30;35.30;;;;;;4993295;28;20448;-64
2023/03/02 12:53:16;;;;;;;2.00;1.90;;;19.30;35.30;;;;;;4993237;28;20416;-64
2023/03/02 12:55:42;;;;;;;1.70;1.60;;;19.30;35.30;;;;;;4995092;28;20767;-65
2023/03/02 12:58:26;;;;;;;1.70;1.60;;;19.30;35.30;;;;;;4995199;28;20453;-64
2023/03/02 13:00:56;;;;;;;1.60;1.50;;;19.30;35.30;;;;;;4990372;28;20281;-65